Time;durP1;ratioP1;P1;durP2;ratioP2;P2;SDS_P1;SDS_P2;PMS_P1;PMS_P2;Temp;Humidity;BMP_temperature;BMP_pressure;BME280_temperature;BME280_humidity;BME280_pressure;Samples;Min_cycle;Max_cycle;Signal;HPM_P1;HPM_P2
2024/01/13 00:00:01;;;;;;;;;;;;;;;;;;5009472;28;20436;-89
2024/01/13 00:02:26;;;;;;;;;;;;;;;;;;5004068;28;19921;-89
2024/01/13 00:04:52;;;;;;;;;;;;;;;;;;5012282;28;19996;-89
2024/01/13 00:07:18;;;;;;;;;;;;;;;;;;5011863;28;20389;-89
2024/01/13 00:09:44;;;;;;;;;;;;;;;;;;5007139;28;20013;-89
2024/01/13 00:12:10;;;;;;;;;;;;;;;;;;5009302;28;19920;-88
2024/01/13 00:14:36;;;;;;;;;;;;;;;;;;5008691;28;19913;-89
2024/01/13 00:17:02;;;;;;;;;;;;;;;;;;5011756;28;19955;-89
2024/01/13 00:19:28;;;;;;;;;;;;;;;;;;5006396;28;20366;-89
2024/01/13 00:21:53;;;;;;;;;;;;;;;;;;5002983;28;19916;-89
2024/01/13 00:24:19;;;;;;;;;;;;;;;;;;4998355;28;19909;-89
2024/01/13 00:26:45;;;;;;;;;;;;;;;;;;5003443;28;20416;-88
2024/01/13 00:29:11;;;;;;;;;;;;;;;;;;5005136;28;19910;-89
2024/01/13 00:31:37;;;;;;;;;;;;;;;;;;5000140;28;20353;-88
2024/01/13 00:34:03;;;;;;;;;;;;;;;;;;5001562;28;19920;-89
2024/01/13 00:36:29;;;;;;;;;;;;;;;;;;5008445;28;19909;-89
2024/01/13 00:38:58;;;;;;;;;;;;;;;;;;5012008;28;19949;-89
2024/01/13 00:41:24;;;;;;;;;;;;;;;;;;5011125;28;20008;-89
2024/01/13 00:43:49;;;;;;;;;;;;;;;;;;5004794;28;19976;-89
2024/01/13 00:46:15;;;;;;;;;;;;;;;;;;5001466;28;20285;-88
2024/01/13 00:48:41;;;;;;;;;;;;;;;;;;5006163;28;19916;-89
2024/01/13 00:51:07;;;;;;;;;;;;;;;;;;5005178;28;19918;-89
2024/01/13 00:53:33;;;;;;;;;;;;;;;;;;5014856;28;19967;-89
2024/01/13 00:55:59;;;;;;;;;;;;;;;;;;5007639;28;19976;-88
2024/01/13 00:58:25;;;;;;;;;;;;;;;;;;5005772;28;19913;-88
2024/01/13 01:00:51;;;;;;;;;;;;;;;;;;5015336;28;19910;-89
2024/01/13 01:03:17;;;;;;;;;;;;;;;;;;5007662;28;19925;-89
2024/01/13 01:05:42;;;;;;;;;;;;;;;;;;5015675;28;19913;-89
2024/01/13 01:08:08;;;;;;;;;;;;;;;;;;5007610;28;19940;-89
2024/01/13 01:10:34;;;;;;;;;;;;;;;;;;5009933;28;19910;-88
2024/01/13 01:13:00;;;;;;;;;;;;;;;;;;5012648;28;20008;-88
2024/01/13 01:15:26;;;;;;;;;;;;;;;;;;5008917;28;20443;-89
2024/01/13 01:17:52;;;;;;;;;;;;;;;;;;5015196;28;19909;-88
2024/01/13 01:20:19;;;;;;;;;;;;;;;;;;4999799;28;20045;-89
2024/01/13 01:22:46;;;;;;;;;;;;;;;;;;5011616;28;19916;-88
2024/01/13 01:25:12;;;;;;;;;;;;;;;;;;5012234;28;19933;-88
2024/01/13 01:27:38;;;;;;;;;;;;;;;;;;4997773;28;19910;-88
2024/01/13 01:30:04;;;;;;;;;;;;;;;;;;5008047;28;19976;-88
2024/01/13 01:32:30;;;;;;;;;;;;;;;;;;5000511;28;19996;-88
2024/01/13 01:34:58;;;;;;;;;;;;;;;;;;5004871;28;19913;-89
2024/01/13 01:37:24;;;;;;;;;;;;;;;;;;5004514;28;19915;-89
2024/01/13 01:39:50;;;;;;;;;;;;;;;;;;5005789;28;19910;-88
2024/01/13 01:42:15;;;;;;;;;;;;;;;;;;5012632;28;19917;-89
2024/01/13 01:44:41;;;;;;;;;;;;;;;;;;5004131;28;19997;-89
2024/01/13 01:47:08;;;;;;;;;;;;;;;;;;5030502;28;20302;-88
2024/01/13 01:49:34;;;;;;;;;;;;;;;;;;5008920;28;20403;-88
2024/01/13 01:52:00;;;;;;;;;;;;;;;;;;5026553;28;20007;-88
2024/01/13 01:54:26;;;;;;;;;;;;;;;;;;5014828;28;20285;-89
2024/01/13 01:56:51;;;;;;;;;;;;;;;;;;5003349;28;19917;-88
2024/01/13 01:59:17;;;;;;;;;;;;;;;;;;5014855;28;20183;-89
2024/01/13 02:01:43;;;;;;;;;;;;;;;;;;4999235;28;19936;-89
2024/01/13 02:04:09;;;;;;;;;;;;;;;;;;5002067;28;20370;-89
2024/01/13 02:06:35;;;;;;;;;;;;;;;;;;5003626;28;19996;-89
2024/01/13 02:09:01;;;;;;;;;;;;;;;;;;5005765;28;19917;-89
2024/01/13 02:11:27;;;;;;;;;;;;;;;;;;5007603;28;20440;-88
2024/01/13 02:13:53;;;;;;;;;;;;;;;;;;5014377;28;20297;-89
2024/01/13 02:16:19;;;;;;;;;;;;;;;;;;5004276;28;19910;-89
2024/01/13 02:18:45;;;;;;;;;;;;;;;;;;5000761;28;19909;-89
2024/01/13 02:21:11;;;;;;;;;;;;;;;;;;4999958;28;20012;-89
2024/01/13 02:23:37;;;;;;;;;;;;;;;;;;5004285;28;20373;-88
2024/01/13 02:26:03;;;;;;;;;;;;;;;;;;5013776;28;19909;-88
2024/01/13 02:28:31;;;;;;;;;;;;;;;;;;5004185;28;19917;-89
2024/01/13 02:30:57;;;;;;;;;;;;;;;;;;5030936;28;19925;-89
2024/01/13 02:33:23;;;;;;;;;;;;;;;;;;5012270;28;20362;-89
2024/01/13 02:35:49;;;;;;;;;;;;;;;;;;5007703;28;19917;-88
2024/01/13 02:38:14;;;;;;;;;;;;;;;;;;5002674;28;19910;-88
2024/01/13 02:40:40;;;;;;;;;;;;;;;;;;4999142;28;19931;-88
2024/01/13 02:43:06;;;;;;;;;;;;;;;;;;5019198;28;19914;-88
2024/01/13 02:45:32;;;;;;;;;;;;;;;;;;5004610;28;20533;-89
2024/01/13 02:47:58;;;;;;;;;;;;;;;;;;5010691;28;19971;-89
2024/01/13 02:50:24;;;;;;;;;;;;;;;;;;5007194;28;19920;-89
2024/01/13 02:52:50;;;;;;;;;;;;;;;;;;5008578;28;19953;-89
2024/01/13 02:55:16;;;;;;;;;;;;;;;;;;5007996;28;19917;-89
2024/01/13 02:57:41;;;;;;;;;;;;;;;;;;5013593;28;19910;-89
2024/01/13 03:00:09;;;;;;;;;;;;;;;;;;5023661;22;19930;-73
2024/01/13 03:02:35;;;;;;;;;;;;;;;;;;4993058;28;19910;-73
2024/01/13 03:05:00;;;;;;;;;;;;;;;;;;4989682;28;19916;-73
2024/01/13 03:07:26;;;;;;;;;;;;;;;;;;5003061;28;20362;-73
2024/01/13 03:09:52;;;;;;;;;;;;;;;;;;5000916;28;19914;-73
2024/01/13 03:12:18;;;;;;;;;;;;;;;;;;4996850;28;20024;-73
2024/01/13 03:14:44;;;;;;;;;;;;;;;;;;5007971;28;20498;-73
2024/01/13 03:17:10;;;;;;;;;;;;;;;;;;4990974;28;19910;-74
2024/01/13 03:19:36;;;;;;;;;;;;;;;;;;4995103;28;20359;-74
2024/01/13 03:22:02;;;;;;;;;;;;;;;;;;5004962;28;19913;-73
2024/01/13 03:24:27;;;;;;;;;;;;;;;;;;4996875;28;20007;-73
2024/01/13 03:26:53;;;;;;;;;;;;;;;;;;5002844;28;20019;-73
2024/01/13 03:29:19;;;;;;;;;;;;;;;;;;4994492;28;19910;-73
2024/01/13 03:31:45;;;;;;;;;;;;;;;;;;5005808;28;20378;-73
2024/01/13 03:34:11;;;;;;;;;;;;;;;;;;5007415;28;20091;-73
2024/01/13 03:36:37;;;;;;;;;;;;;;;;;;5001639;28;19910;-73
2024/01/13 03:39:03;;;;;;;;;;;;;;;;;;5011926;28;19910;-73
2024/01/13 03:41:29;;;;;;;;;;;;;;;;;;5007120;28;19996;-73
2024/01/13 03:43:57;;;;;;;;;;;;;;;;;;5002997;28;19962;-73
2024/01/13 03:46:23;;;;;;;;;;;;;;;;;;4989300;28;19918;-73
2024/01/13 03:48:49;;;;;;;;;;;;;;;;;;5003090;28;19976;-73
2024/01/13 03:51:15;;;;;;;;;;;;;;;;;;5005424;28;19910;-73
2024/01/13 03:53:41;;;;;;;;;;;;;;;;;;5006411;28;20386;-73
2024/01/13 03:56:08;;;;;;;;;;;;;;;;;;5002786;28;19916;-73
2024/01/13 03:58:34;;;;;;;;;;;;;;;;;;5002523;28;19977;-73
2024/01/13 04:01:00;;;;;;;;;;;;;;;;;;4998552;28;19960;-73
2024/01/13 04:03:26;;;;;;;;;;;;;;;;;;4998761;28;19932;-73
2024/01/13 04:05:51;;;;;;;;;;;;;;;;;;5006493;28;19917;-73
2024/01/13 04:08:17;;;;;;;;;;;;;;;;;;4999240;28;19999;-71
2024/01/13 04:10:43;;;;;;;;;;;;;;;;;;5002483;28;20378;-71
2024/01/13 04:13:09;;;;;;;;;;;;;;;;;;4998388;28;19976;-71
2024/01/13 04:15:35;;;;;;;;;;;;;;;;;;5003598;28;19972;-72
2024/01/13 04:18:01;;;;;;;;;;;;;;;;;;5001350;28;20366;-72
2024/01/13 04:20:27;;;;;;;;;;;;;;;;;;4997367;28;19925;-71
2024/01/13 04:22:52;;;;;;;;;;;;;;;;;;4994240;28;19981;-72
2024/01/13 04:25:18;;;;;;;;;;;;;;;;;;4997291;28;19917;-72
2024/01/13 04:27:44;;;;;;;;;;;;;;;;;;5000281;28;20008;-72
2024/01/13 04:30:10;;;;;;;;;;;;;;;;;;4998815;28;19910;-72
2024/01/13 04:32:36;;;;;;;;;;;;;;;;;;4991406;28;20362;-72
2024/01/13 04:35:02;;;;;;;;;;;;;;;;;;4998623;28;20004;-72
2024/01/13 04:37:28;;;;;;;;;;;;;;;;;;5002909;28;19925;-72
2024/01/13 04:39:54;;;;;;;;;;;;;;;;;;4989863;28;19939;-72
2024/01/13 04:42:19;;;;;;;;;;;;;;;;;;5004765;28;20379;-73
2024/01/13 04:44:45;;;;;;;;;;;;;;;;;;4996536;28;19910;-72
2024/01/13 04:47:11;;;;;;;;;;;;;;;;;;4992655;28;19914;-72
2024/01/13 04:49:37;;;;;;;;;;;;;;;;;;5005028;28;19993;-73
2024/01/13 04:52:03;;;;;;;;;;;;;;;;;;4999607;28;19913;-72
2024/01/13 04:54:29;;;;;;;;;;;;;;;;;;4995787;28;20394;-73
2024/01/13 04:56:55;;;;;;;;;;;;;;;;;;4999670;28;19941;-72
2024/01/13 04:59:21;;;;;;;;;;;;;;;;;;4997404;28;19916;-73
2024/01/13 05:01:46;;;;;;;;;;;;;;;;;;4996905;28;19918;-72
2024/01/13 05:04:12;;;;;;;;;;;;;;;;;;4998578;28;19910;-72
2024/01/13 05:06:38;;;;;;;;;;;;;;;;;;4990639;28;19910;-72
2024/01/13 05:09:04;;;;;;;;;;;;;;;;;;5010742;28;20409;-73
2024/01/13 05:11:30;;;;;;;;;;;;;;;;;;5001256;28;19910;-72
2024/01/13 05:13:56;;;;;;;;;;;;;;;;;;4998056;28;19914;-72
2024/01/13 05:16:22;;;;;;;;;;;;;;;;;;4991687;28;20426;-72
2024/01/13 05:18:47;;;;;;;;;;;;;;;;;;4992454;28;19910;-73
2024/01/13 05:21:13;;;;;;;;;;;;;;;;;;4996585;28;19910;-72
2024/01/13 05:23:39;;;;;;;;;;;;;;;;;;5007369;28;19917;-72
2024/01/13 05:26:05;;;;;;;;;;;;;;;;;;4998466;28;19981;-72
2024/01/13 05:28:31;;;;;;;;;;;;;;;;;;4992506;28;19913;-72
2024/01/13 05:30:57;;;;;;;;;;;;;;;;;;4999266;28;20286;-72
2024/01/13 05:33:23;;;;;;;;;;;;;;;;;;5010640;28;19968;-72
2024/01/13 05:35:49;;;;;;;;;;;;;;;;;;5010372;28;19916;-72
2024/01/13 05:38:14;;;;;;;;;;;;;;;;;;5003094;28;19988;-72
2024/01/13 05:40:43;;;;;;;;;;;;;;;;;;4997370;28;20348;-72
2024/01/13 05:43:09;;;;;;;;;;;;;;;;;;5007845;28;19909;-72
2024/01/13 05:45:35;;;;;;;;;;;;;;;;;;5007604;28;19936;-72
2024/01/13 05:48:01;;;;;;;;;;;;;;;;;;5004901;28;20012;-72
2024/01/13 05:50:27;;;;;;;;;;;;;;;;;;5000173;28;19910;-72
2024/01/13 05:52:53;;;;;;;;;;;;;;;;;;5001108;28;19913;-72
2024/01/13 05:55:19;;;;;;;;;;;;;;;;;;4999911;28;19914;-72
2024/01/13 05:57:45;;;;;;;;;;;;;;;;;;5021671;28;20381;-72
2024/01/13 06:00:11;;;;;;;;;;;;;;;;;;5001295;28;19960;-72
2024/01/13 06:02:36;;;;;;;;;;;;;;;;;;5000711;28;20001;-73
2024/01/13 06:05:02;;;;;;;;;;;;;;;;;;4997544;28;19909;-72
2024/01/13 06:07:28;;;;;;;;;;;;;;;;;;4995149;28;19910;-72
2024/01/13 06:09:54;;;;;;;;;;;;;;;;;;4998193;28;19910;-72
2024/01/13 06:12:22;;;;;;;;;;;;;;;;;;4993148;28;20366;-72
2024/01/13 06:14:48;;;;;;;;;;;;;;;;;;4992123;28;19909;-73
2024/01/13 06:17:14;;;;;;;;;;;;;;;;;;5000635;28;20289;-72
2024/01/13 06:19:40;;;;;;;;;;;;;;;;;;4994070;28;20004;-72
2024/01/13 06:22:06;;;;;;;;;;;;;;;;;;4999328;28;19910;-74
2024/01/13 06:24:32;;;;;;;;;;;;;;;;;;5003532;28;19925;-72
2024/01/13 06:26:57;;;;;;;;;;;;;;;;;;5001920;28;20273;-73
2024/01/13 06:29:23;;;;;;;;;;;;;;;;;;4999220;28;19987;-73
2024/01/13 06:31:49;;;;;;;;;;;;;;;;;;5004691;28;19910;-72
2024/01/13 06:34:15;;;;;;;;;;;;;;;;;;5004429;28;19913;-73
2024/01/13 06:36:41;;;;;;;;;;;;;;;;;;5000325;28;19910;-72
2024/01/13 06:39:07;;;;;;;;;;;;;;;;;;4999570;28;19914;-73
2024/01/13 06:41:33;;;;;;;;;;;;;;;;;;5002050;28;20498;-72
2024/01/13 06:43:58;;;;;;;;;;;;;;;;;;5001185;28;19910;-73
2024/01/13 06:46:24;;;;;;;;;;;;;;;;;;4997091;28;19910;-72
2024/01/13 06:48:50;;;;;;;;;;;;;;;;;;5005814;28;19981;-73
2024/01/13 06:51:16;;;;;;;;;;;;;;;;;;4998355;28;19964;-72
2024/01/13 06:53:42;;;;;;;;;;;;;;;;;;4998741;28;19922;-72
2024/01/13 06:56:08;;;;;;;;;;;;;;;;;;5000820;28;19920;-72
2024/01/13 06:58:34;;;;;;;;;;;;;;;;;;5000596;28;20004;-72
2024/01/13 07:01:00;;;;;;;;;;;;;;;;;;5005940;28;19924;-73
2024/01/13 07:03:26;;;;;;;;;;;;;;;;;;4999603;28;19937;-72
2024/01/13 07:05:52;;;;;;;;;;;;;;;;;;4999847;28;19914;-72
2024/01/13 07:08:18;;;;;;;;;;;;;;;;;;5001425;28;20286;-72
2024/01/13 07:10:43;;;;;;;;;;;;;;;;;;5002148;28;19909;-73
2024/01/13 07:13:09;;;;;;;;;;;;;;;;;;5003489;28;19921;-72
2024/01/13 07:15:35;;;;;;;;;;;;;;;;;;5003219;28;19920;-73
2024/01/13 07:18:01;;;;;;;;;;;;;;;;;;4994853;28;19922;-72
2024/01/13 07:20:27;;;;;;;;;;;;;;;;;;4991078;28;19921;-73
2024/01/13 07:22:53;;;;;;;;;;;;;;;;;;4992477;28;19939;-72
2024/01/13 07:25:19;;;;;;;;;;;;;;;;;;4989612;28;19909;-73
2024/01/13 07:27:45;;;;;;;;;;;;;;;;;;4996229;28;19972;-72
2024/01/13 07:30:10;;;;;;;;;;;;;;;;;;5001402;28;20397;-72
2024/01/13 07:32:36;;;;;;;;;;;;;;;;;;4996651;28;19996;-72
2024/01/13 07:35:02;;;;;;;;;;;;;;;;;;5003836;28;19914;-72
2024/01/13 07:37:28;;;;;;;;;;;;;;;;;;5005210;28;20080;-72
2024/01/13 07:39:54;;;;;;;;;;;;;;;;;;4997125;28;19996;-72
2024/01/13 07:42:20;;;;;;;;;;;;;;;;;;4998175;28;19910;-72
2024/01/13 07:44:46;;;;;;;;;;;;;;;;;;4990329;28;19918;-72
2024/01/13 07:47:12;;;;;;;;;;;;;;;;;;4999876;28;20370;-72
2024/01/13 07:49:38;;;;;;;;;;;;;;;;;;5009009;28;19909;-72
2024/01/13 07:52:03;;;;;;;;;;;;;;;;;;4998142;28;19924;-72
2024/01/13 07:54:29;;;;;;;;;;;;;;;;;;5005293;28;19917;-72
2024/01/13 07:56:55;;;;;;;;;;;;;;;;;;4991177;28;20640;-72
2024/01/13 07:59:22;;;;;;;;;;;;;;;;;;5014208;28;19914;-74
2024/01/13 08:01:48;;;;;;;;;;;;;;;;;;4995371;28;19917;-72
2024/01/13 08:04:15;;;;;;;;;;;;;;;;;;5006456;28;20057;-72
2024/01/13 08:06:41;;;;;;;;;;;;;;;;;;4995027;28;19913;-72
2024/01/13 08:09:07;;;;;;;;;;;;;;;;;;5007739;28;19910;-72
2024/01/13 08:11:33;;;;;;;;;;;;;;;;;;4999550;28;19916;-73
2024/01/13 08:13:59;;;;;;;;;;;;;;;;;;4997785;28;19918;-72
2024/01/13 08:16:25;;;;;;;;;;;;;;;;;;4989464;28;20317;-73
2024/01/13 08:18:50;;;;;;;;;;;;;;;;;;4986989;28;19965;-72
2024/01/13 08:21:16;;;;;;;;;;;;;;;;;;4996998;28;19914;-72
2024/01/13 08:23:42;;;;;;;;;;;;;;;;;;5006976;28;20345;-72
2024/01/13 08:26:08;;;;;;;;;;;;;;;;;;4999189;28;20397;-74
2024/01/13 08:28:34;;;;;;;;;;;;;;;;;;5000106;28;19910;-74
2024/01/13 08:31:00;;;;;;;;;;;;;;;;;;5008887;28;19910;-73
2024/01/13 08:33:26;;;;;;;;;;;;;;;;;;4992477;28;19936;-73
2024/01/13 08:35:52;;;;;;;;;;;;;;;;;;4996202;28;19918;-72
2024/01/13 08:38:17;;;;;;;;;;;;;;;;;;4993736;28;20337;-73
2024/01/13 08:40:45;;;;;;;;;;;;;;;;;;4997712;28;20306;-74
2024/01/13 08:43:11;;;;;;;;;;;;;;;;;;4997251;28;19921;-73
2024/01/13 08:45:37;;;;;;;;;;;;;;;;;;4989760;28;20322;-72
2024/01/13 08:48:03;;;;;;;;;;;;;;;;;;5000382;28;19910;-72
2024/01/13 08:50:29;;;;;;;;;;;;;;;;;;5006062;28;19910;-73
2024/01/13 08:52:55;;;;;;;;;;;;;;;;;;4994296;28;19952;-73
2024/01/13 08:55:20;;;;;;;;;;;;;;;;;;4996118;28;20385;-72
2024/01/13 08:57:46;;;;;;;;;;;;;;;;;;4997829;28;20326;-73
2024/01/13 09:00:12;;;;;;;;;;;;;;;;;;4990452;28;20371;-73
2024/01/13 09:02:39;;;;;;;;;;;;;;;;;;4991326;28;19988;-73
2024/01/13 09:05:05;;;;;;;;;;;;;;;;;;4992164;28;19916;-73
2024/01/13 09:07:30;;;;;;;;;;;;;;;;;;5013421;28;19910;-73
2024/01/13 09:09:56;;;;;;;;;;;;;;;;;;5017282;28;19909;-72
2024/01/13 09:12:22;;;;;;;;;;;;;;;;;;4995649;28;19968;-72
2024/01/13 09:14:48;;;;;;;;;;;;;;;;;;4994523;28;19914;-73
2024/01/13 09:17:14;;;;;;;;;;;;;;;;;;4998132;28;20000;-73
2024/01/13 09:19:40;;;;;;;;;;;;;;;;;;5004171;28;19914;-73
2024/01/13 09:22:06;;;;;;;;;;;;;;;;;;4994361;28;19910;-73
2024/01/13 09:24:32;;;;;;;;;;;;;;;;;;4998579;28;19914;-73
2024/01/13 09:26:57;;;;;;;;;;;;;;;;;;5009808;28;19996;-73
2024/01/13 09:29:23;;;;;;;;;;;;;;;;;;5006460;28;19921;-73
2024/01/13 09:31:49;;;;;;;;;;;;;;;;;;5006661;28;20311;-73
2024/01/13 09:34:15;;;;;;;;;;;;;;;;;;5001172;28;19914;-72
2024/01/13 09:36:41;;;;;;;;;;;;;;;;;;5005108;28;19985;-72
2024/01/13 09:39:14;;;;;;;;;;;;;;;;;;4998060;28;19913;-73
2024/01/13 09:41:40;;;;;;;;;;;;;;;;;;4986145;28;19941;-73
2024/01/13 09:44:06;;;;;;;;;;;;;;;;;;4994483;28;20349;-73
2024/01/13 09:46:32;;;;;;;;;;;;;;;;;;4998135;28;20299;-74
2024/01/13 09:48:58;;;;;;;;;;;;;;;;;;4998025;28;19918;-74
2024/01/13 09:51:24;;;;;;;;;;;;;;;;;;4994298;28;19952;-73
2024/01/13 09:53:51;;;;;;;;;;;;;;;;;;5006192;28;19957;-73
2024/01/13 09:56:16;;;;;;;;;;;;;;;;;;5003854;28;19960;-73
2024/01/13 09:58:42;;;;;;;;;;;;;;;;;;4996944;28;19909;-74
2024/01/13 10:01:08;;;;;;;;;;;;;;;;;;4992156;28;19959;-74
2024/01/13 10:03:34;;;;;;;;;;;;;;;;;;4992195;28;20331;-73
2024/01/13 10:06:00;;;;;;;;;;;;;;;;;;5002730;28;19929;-73
2024/01/13 10:08:26;;;;;;;;;;;;;;;;;;4999287;28;19910;-73
2024/01/13 10:10:52;;;;;;;;;;;;;;;;;;4991647;28;20382;-73
2024/01/13 10:13:20;;;;;;;;;;;;;;;;;;4989578;28;19976;-74
2024/01/13 10:15:45;;;;;;;;;;;;;;;;;;5004637;28;19913;-74
2024/01/13 10:18:11;;;;;;;;;;;;;;;;;;5004828;28;19914;-74
2024/01/13 10:20:37;;;;;;;;;;;;;;;;;;5015679;28;19976;-73
2024/01/13 10:23:03;;;;;;;;;;;;;;;;;;5001404;28;19910;-74
2024/01/13 10:25:29;;;;;;;;;;;;;;;;;;4999530;28;19965;-74
2024/01/13 10:27:55;;;;;;;;;;;;;;;;;;5001397;28;19906;-74
2024/01/13 10:30:21;;;;;;;;;;;;;;;;;;4998274;28;20287;-74
2024/01/13 10:32:47;;;;;;;;;;;;;;;;;;5000263;28;20008;-74
2024/01/13 10:35:17;;;;;;;;;;;;;;;;;;4996765;28;19910;-74
2024/01/13 10:37:43;;;;;;;;;;;;;;;;;;5008089;28;19916;-73
2024/01/13 10:40:09;;;;;;;;;;;;;;;;;;4991954;28;19909;-74
2024/01/13 10:42:35;;;;;;;;;;;;;;;;;;4999354;28;20258;-74
2024/01/13 10:45:01;;;;;;;;;;;;;;;;;;4993147;28;19916;-74
2024/01/13 10:47:27;;;;;;;;;;;;;;;;;;5003690;28;19909;-74
2024/01/13 10:49:53;;;;;;;;;;;;;;;;;;4997666;28;19932;-74
2024/01/13 10:52:19;;;;;;;;;;;;;;;;;;5000202;28;19921;-73
2024/01/13 10:54:45;;;;;;;;;;;;;;;;;;5002662;28;19914;-73
2024/01/13 10:57:11;;;;;;;;;;;;;;;;;;5009802;28;19933;-73
2024/01/13 10:59:37;;;;;;;;;;;;;;;;;;5001322;28;20000;-76
2024/01/13 11:02:03;;;;;;;;;;;;;;;;;;5017154;28;20580;-73
2024/01/13 11:04:28;;;;;;;;;;;;;;;;;;4997672;28;20302;-74
2024/01/13 11:06:54;;;;;;;;;;;;;;;;;;4990073;28;19916;-73
2024/01/13 11:09:20;;;;;;;;;;;;;;;;;;4999997;28;19914;-73
2024/01/13 11:11:46;;;;;;;;;;;;;;;;;;4988033;28;20373;-74
2024/01/13 11:14:12;;;;;;;;;;;;;;;;;;4998021;28;19913;-74
2024/01/13 11:16:38;;;;;;;;;;;;;;;;;;5001662;28;20294;-75
2024/01/13 11:19:04;;;;;;;;;;;;;;;;;;5000459;28;19964;-76
2024/01/13 11:21:30;;;;;;;;;;;;;;;;;;4991374;28;19925;-73
2024/01/13 11:23:56;;;;;;;;;;;;;;;;;;4999817;28;19910;-74
2024/01/13 11:26:22;;;;;;;;;;;;;;;;;;5002333;28;20385;-74
2024/01/13 11:28:51;;;;;;;;;;;;;;;;;;4994493;28;19910;-74
2024/01/13 11:31:17;;;;;;;;;;;;;;;;;;4995625;28;20027;-76
2024/01/13 11:33:43;;;;;;;;;;;;;;;;;;4998145;28;19972;-74
2024/01/13 11:36:08;;;;;;;;;;;;;;;;;;4988708;28;19929;-75
2024/01/13 11:38:34;;;;;;;;;;;;;;;;;;5000800;28;20377;-74
2024/01/13 11:41:00;;;;;;;;;;;;;;;;;;4997565;28;19909;-74
2024/01/13 11:43:26;;;;;;;;;;;;;;;;;;5005896;28;20000;-73
2024/01/13 11:45:52;;;;;;;;;;;;;;;;;;5010376;28;20380;-74
2024/01/13 11:48:18;;;;;;;;;;;;;;;;;;4999372;28;19973;-74
2024/01/13 11:50:44;;;;;;;;;;;;;;;;;;5001275;28;20272;-73
2024/01/13 11:53:10;;;;;;;;;;;;;;;;;;4988372;28;19965;-74
2024/01/13 11:55:36;;;;;;;;;;;;;;;;;;4995807;28;19916;-73
2024/01/13 11:58:02;;;;;;;;;;;;;;;;;;4996361;28;19918;-74
2024/01/13 12:00:28;;;;;;;;;;;;;;;;;;4999451;28;19917;-73
2024/01/13 12:02:54;;;;;;;;;;;;;;;;;;4996908;28;19956;-73
2024/01/13 12:05:19;;;;;;;;;;;;;;;;;;4991395;28;19945;-74
2024/01/13 12:07:45;;;;;;;;;;;;;;;;;;4990765;28;20298;-74
2024/01/13 12:10:12;;;;;;;;;;;;;;;;;;5011563;28;19925;-73
2024/01/13 12:12:38;;;;;;;;;;;;;;;;;;5002695;28;20008;-73
2024/01/13 12:15:04;;;;;;;;;;;;;;;;;;5002287;28;19963;-73
2024/01/13 12:17:29;;;;;;;;;;;;;;;;;;4994993;28;19910;-73
2024/01/13 12:19:55;;;;;;;;;;;;;;;;;;4994018;28;19922;-73
2024/01/13 12:22:23;;;;;;;;;;;;;;;;;;5001679;28;19910;-73
2024/01/13 12:24:49;;;;;;;;;;;;;;;;;;4989899;28;19909;-73
2024/01/13 12:27:15;;;;;;;;;;;;;;;;;;4999410;28;20379;-73
2024/01/13 12:29:41;;;;;;;;;;;;;;;;;;5000283;28;19913;-73
2024/01/13 12:32:07;;;;;;;;;;;;;;;;;;4992849;28;19910;-73
2024/01/13 12:34:36;;;;;;;;;;;;;;;;;;4998791;28;19951;-73
2024/01/13 12:37:02;;;;;;;;;;;;;;;;;;4992761;28;19914;-73
2024/01/13 12:39:28;;;;;;;;;;;;;;;;;;4994070;28;19945;-73
2024/01/13 12:41:54;;;;;;;;;;;;;;;;;;4990538;28;20363;-73
2024/01/13 12:44:20;;;;;;;;;;;;;;;;;;5000248;28;19914;-73
2024/01/13 12:46:46;;;;;;;;;;;;;;;;;;4996796;28;19917;-73
2024/01/13 12:49:12;;;;;;;;;;;;;;;;;;4996248;28;19921;-73
2024/01/13 12:51:37;;;;;;;;;;;;;;;;;;4996628;28;19917;-74
2024/01/13 12:54:04;;;;;;;;;;;;;;;;;;4998112;28;19957;-71
2024/01/13 12:56:30;;;;;;;;;;;;;;;;;;4986655;28;19910;-72
2024/01/13 12:58:56;;;;;;;;;;;;;;;;;;4995326;28;20421;-71
2024/01/13 13:01:22;;;;;;;;;;;;;;;;;;5019967;28;19933;-72
2024/01/13 13:03:48;;;;;;;;;;;;;;;;;;4992355;28;19909;-71
2024/01/13 13:06:14;;;;;;;;;;;;;;;;;;4993952;28;20337;-71
2024/01/13 13:08:40;;;;;;;;;;;;;;;;;;5010634;28;19916;-73
2024/01/13 13:11:06;;;;;;;;;;;;;;;;;;5006488;28;20366;-74
2024/01/13 13:13:34;;;;;;;;;;;;;;;;;;5009039;28;19925;-72
2024/01/13 13:16:00;;;;;;;;;;;;;;;;;;4999024;28;19910;-72
2024/01/13 13:18:25;;;;;;;;;;;;;;;;;;4995290;28;19916;-72
2024/01/13 13:20:52;;;;;;;;;;;;;;;;;;4995092;28;19940;-72
2024/01/13 13:23:18;;;;;;;;;;;;;;;;;;4994961;28;19910;-72
2024/01/13 13:25:44;;;;;;;;;;;;;;;;;;4998341;28;19910;-72
2024/01/13 13:28:10;;;;;;;;;;;;;;;;;;4991911;28;19986;-72
2024/01/13 13:30:36;;;;;;;;;;;;;;;;;;5003390;28;19909;-72
2024/01/13 13:33:02;;;;;;;;;;;;;;;;;;4995594;28;20294;-72
2024/01/13 13:35:28;;;;;;;;;;;;;;;;;;4997090;28;19910;-72
2024/01/13 13:37:54;;;;;;;;;;;;;;;;;;4993878;28;19929;-72
2024/01/13 13:40:20;;;;;;;;;;;;;;;;;;5001304;28;19918;-73
2024/01/13 13:42:46;;;;;;;;;;;;;;;;;;4991786;28;20064;-72
2024/01/13 13:45:12;;;;;;;;;;;;;;;;;;5013751;28;19914;-72
2024/01/13 13:47:38;;;;;;;;;;;;;;;;;;5005624;28;19969;-73
2024/01/13 13:50:03;;;;;;;;;;;;;;;;;;5005884;28;19977;-73
2024/01/13 13:52:29;;;;;;;;;;;;;;;;;;5003062;28;19921;-72
2024/01/13 13:54:55;;;;;;;;;;;;;;;;;;4995080;28;19914;-73
2024/01/13 13:57:21;;;;;;;;;;;;;;;;;;4998568;28;19918;-73
2024/01/13 13:59:47;;;;;;;;;;;;;;;;;;4997213;28;19913;-73
2024/01/13 14:02:14;;;;;;;;;;;;;;;;;;4994571;28;19961;-73
2024/01/13 14:04:40;;;;;;;;;;;;;;;;;;4997570;28;19917;-73
2024/01/13 14:07:06;;;;;;;;;;;;;;;;;;4995111;28;19909;-73
2024/01/13 14:09:31;;;;;;;;;;;;;;;;;;4996959;28;20470;-73
2024/01/13 14:11:57;;;;;;;;;;;;;;;;;;4997034;28;19910;-73
2024/01/13 14:14:23;;;;;;;;;;;;;;;;;;5025394;28;19961;-72
2024/01/13 14:16:49;;;;;;;;;;;;;;;;;;4999080;28;20334;-72
2024/01/13 14:19:15;;;;;;;;;;;;;;;;;;5002962;28;20485;-72
2024/01/13 14:21:41;;;;;;;;;;;;;;;;;;4994710;28;19922;-73
2024/01/13 14:24:07;;;;;;;;;;;;;;;;;;4992048;28;19961;-72
2024/01/13 14:26:33;;;;;;;;;;;;;;;;;;4995126;28;20346;-73
2024/01/13 14:28:58;;;;;;;;;;;;;;;;;;4999298;28;19910;-73
2024/01/13 14:31:24;;;;;;;;;;;;;;;;;;4991633;28;19955;-73
2024/01/13 14:33:50;;;;;;;;;;;;;;;;;;4992138;28;19960;-73
2024/01/13 14:36:16;;;;;;;;;;;;;;;;;;5011056;28;19910;-73
2024/01/13 14:38:42;;;;;;;;;;;;;;;;;;4992491;28;20110;-73
2024/01/13 14:41:08;;;;;;;;;;;;;;;;;;5010553;28;20008;-73
2024/01/13 14:43:34;;;;;;;;;;;;;;;;;;5000235;28;19910;-73
2024/01/13 14:46:00;;;;;;;;;;;;;;;;;;4991280;28;19913;-73
2024/01/13 14:48:25;;;;;;;;;;;;;;;;;;5014753;28;19909;-73
2024/01/13 14:50:51;;;;;;;;;;;;;;;;;;4995566;28;19917;-73
2024/01/13 14:53:19;;;;;;;;;;;;;;;;;;4993539;28;20360;-72
2024/01/13 14:55:44;;;;;;;;;;;;;;;;;;4998860;28;19956;-73
2024/01/13 14:58:10;;;;;;;;;;;;;;;;;;4992722;28;19909;-72
2024/01/13 15:00:36;;;;;;;;;;;;;;;;;;4997999;28;19917;-73
2024/01/13 15:03:03;;;;;;;;;;;;;;;;;;5009662;23;19965;-74
2024/01/13 15:05:30;;;;;;;;;;;;;;;;;;4987175;28;19918;-73
2024/01/13 15:07:56;;;;;;;;;;;;;;;;;;4987054;28;19910;-74
2024/01/13 15:10:21;;;;;;;;;;;;;;;;;;4983707;28;19963;-74
2024/01/13 15:12:48;;;;;;;;;;;;;;;;;;4983967;28;20366;-74
2024/01/13 15:15:13;;;;;;;;;;;;;;;;;;4986976;28;19917;-73
2024/01/13 15:17:40;;;;;;;;;;;;;;;;;;4978639;28;19910;-74
2024/01/13 15:20:06;;;;;;;;;;;;;;;;;;4982807;28;19917;-73
2024/01/13 15:22:32;;;;;;;;;;;;;;;;;;4993361;28;19909;-72
2024/01/13 15:24:58;;;;;;;;;;;;;;;;;;4997004;28;20318;-74
2024/01/13 15:27:26;;;;;;;;;;;;;;;;;;4989856;28;19917;-74
2024/01/13 15:29:55;;;;;;;;;;;;;;;;;;4985060;28;19914;-74
2024/01/13 15:32:21;;;;;;;;;;;;;;;;;;4984311;28;19925;-74
2024/01/13 15:34:47;;;;;;;;;;;;;;;;;;4984322;28;19910;-74
2024/01/13 15:37:13;;;;;;;;;;;;;;;;;;4986095;28;20052;-74
2024/01/13 15:39:38;;;;;;;;;;;;;;;;;;4990219;28;19910;-74
2024/01/13 15:42:04;;;;;;;;;;;;;;;;;;4986438;28;19925;-74
2024/01/13 15:44:30;;;;;;;;;;;;;;;;;;4979777;28;20346;-74
2024/01/13 15:46:56;;;;;;;;;;;;;;;;;;4989426;28;19926;-74
2024/01/13 15:49:22;;;;;;;;;;;;;;;;;;4980871;28;20485;-74
2024/01/13 15:51:49;;;;;;;;;;;;;;;;;;4981514;28;19918;-74
2024/01/13 15:54:15;;;;;;;;;;;;;;;;;;4978168;28;19914;-74
2024/01/13 15:56:41;;;;;;;;;;;;;;;;;;4985320;28;19914;-74
2024/01/13 15:59:07;;;;;;;;;;;;;;;;;;4988431;28;19965;-73
2024/01/13 16:01:33;;;;;;;;;;;;;;;;;;4982954;28;21509;-73
2024/01/13 16:03:59;;;;;;;;;;;;;;;;;;4986073;28;19995;-74
2024/01/13 16:06:25;;;;;;;;;;;;;;;;;;4979542;28;19910;-74
2024/01/13 16:08:51;;;;;;;;;;;;;;;;;;4975273;28;19965;-74
2024/01/13 16:11:17;;;;;;;;;;;;;;;;;;4982677;28;20392;-74
2024/01/13 16:13:42;;;;;;;;;;;;;;;;;;4980263;28;20332;-74
2024/01/13 16:16:08;;;;;;;;;;;;;;;;;;4993054;28;19917;-74
2024/01/13 16:18:34;;;;;;;;;;;;;;;;;;4970705;28;19917;-73
2024/01/13 16:21:00;;;;;;;;;;;;;;;;;;4982316;28;19914;-74
2024/01/13 16:23:30;;;;;;;;;;;;;;;;;;4986037;28;19921;-74
2024/01/13 16:25:56;;;;;;;;;;;;;;;;;;4987325;28;19910;-73
2024/01/13 16:28:22;;;;;;;;;;;;;;;;;;4984335;28;19910;-74
2024/01/13 16:30:48;;;;;;;;;;;;;;;;;;4995354;28;19995;-74
2024/01/13 16:33:14;;;;;;;;;;;;;;;;;;4978836;28;19961;-74
2024/01/13 16:35:39;;;;;;;;;;;;;;;;;;4985779;28;19910;-74